Time;durP1;ratioP1;P1;durP2;ratioP2;P2;SDS_P1;SDS_P2;PMS_P1;PMS_P2;Temp;Humidity;BMP_temperature;BMP_pressure;BME280_temperature;BME280_humidity;BME280_pressure;Samples;Min_cycle;Max_cycle;Signal;HPM_P1;HPM_P2
2021/03/28 00:01:51;;;;;;;103.17;63.87;;;;;;;;;;4324571;33;20262;-58
2021/03/28 00:04:20;;;;;;;104.00;59.17;;;;;;;;;;4327910;33;20222;-57
2021/03/28 00:06:45;;;;;;;109.47;59.50;;;;;;;;;;4322703;33;20556;-58
2021/03/28 00:09:49;;;;;;;106.90;56.00;;;;;;;;;;4328964;33;20262;-59
2021/03/28 00:12:37;;;;;;;100.53;53.03;;;;;;;;;;4297324;33;20610;-57
2021/03/28 00:15:08;;;;;;;110.43;57.27;;;;;;;;;;4297430;33;20263;-57
2021/03/28 00:17:39;;;;;;;108.67;62.60;;;;;;;;;;4311598;33;20637;-57
2021/03/28 00:20:22;;;;;;;105.53;59.77;;;;;;;;;;4328486;33;20207;-58
2021/03/28 00:23:03;;;;;;;101.77;57.87;;;;;;;;;;4302114;33;20212;-59
2021/03/28 00:25:34;;;;;;;89.43;51.90;;;;;;;;;;4298185;33;20240;-58
2021/03/28 00:28:01;;;;;;;98.43;52.27;;;;;;;;;;4322847;33;20322;-58
2021/03/28 00:30:32;;;;;;;89.57;49.10;;;;;;;;;;4328789;33;20380;-58
2021/03/28 00:33:09;;;;;;;77.57;43.10;;;;;;;;;;4328192;33;20212;-58
2021/03/28 00:35:46;;;;;;;76.07;43.70;;;;;;;;;;4328417;33;20495;-58
2021/03/28 00:38:19;;;;;;;76.70;43.60;;;;;;;;;;4322560;33;20739;-58
2021/03/28 00:41:06;;;;;;;80.97;46.73;;;;;;;;;;4328457;33;20542;-58
2021/03/28 00:43:42;;;;;;;73.80;42.30;;;;;;;;;;4305245;33;20606;-57
2021/03/28 00:46:08;;;;;;;72.27;43.20;;;;;;;;;;4312636;33;20530;-58
2021/03/28 00:48:35;;;;;;;81.63;42.27;;;;;;;;;;4312430;33;20238;-58
2021/03/28 00:51:20;;;;;;;84.77;46.77;;;;;;;;;;4325436;33;20302;-59
2021/03/28 00:53:50;;;;;;;85.53;46.73;;;;;;;;;;4328301;33;20211;-59
2021/03/28 00:56:41;;;;;;;103.43;54.87;;;;;;;;;;4327543;33;20195;-58
2021/03/28 00:59:24;;;;;;;90.97;54.33;;;;;;;;;;4322174;33;20353;-59
2021/03/28 01:02:10;;;;;;;97.23;54.40;;;;;;;;;;4314325;33;20199;-57
2021/03/28 01:05:00;;;;;;;99.90;53.97;;;;;;;;;;4317394;33;20598;-57
2021/03/28 01:07:43;;;;;;;99.43;55.27;;;;;;;;;;4322314;33;20270;-59
2021/03/28 01:10:43;;;;;;;93.60;53.70;;;;;;;;;;4328177;33;20248;-61
2021/03/28 01:13:46;;;;;;;69.80;41.47;;;;;;;;;;4320244;33;20312;-58
2021/03/28 01:16:34;;;;;;;70.40;39.67;;;;;;;;;;4324584;33;20198;-58
2021/03/28 01:18:59;;;;;;;76.53;39.40;;;;;;;;;;4311742;33;20314;-58
2021/03/28 01:21:54;;;;;;;87.73;47.23;;;;;;;;;;4323531;33;20234;-57
2021/03/28 01:24:25;;;;;;;62.00;37.60;;;;;;;;;;4312676;33;20484;-59
2021/03/28 01:27:13;;;;;;;64.60;35.63;;;;;;;;;;4301601;33;20306;-57
2021/03/28 01:30:01;;;;;;;61.30;35.87;;;;;;;;;;4327533;33;20619;-57
2021/03/28 01:32:35;;;;;;;50.37;29.53;;;;;;;;;;4302805;33;20223;-58
2021/03/28 01:35:16;;;;;;;47.60;29.93;;;;;;;;;;4323087;33;20314;-58
2021/03/28 01:38:13;;;;;;;51.60;28.60;;;;;;;;;;4327717;33;20242;-59
2021/03/28 01:40:55;;;;;;;50.50;30.77;;;;;;;;;;4321081;33;20261;-58
2021/03/28 01:43:47;;;;;;;51.60;32.27;;;;;;;;;;4327453;33;20264;-58
2021/03/28 01:46:42;;;;;;;44.87;27.83;;;;;;;;;;4309348;33;20519;-58
2021/03/28 01:49:20;;;;;;;57.03;32.10;;;;;;;;;;4312164;33;20224;-58
2021/03/28 01:51:54;;;;;;;62.03;34.80;;;;;;;;;;4326569;33;20603;-58
2021/03/28 01:54:20;;;;;;;81.10;58.23;;;;;;;;;;4327676;33;20371;-57
2021/03/28 01:57:02;;;;;;;77.57;51.70;;;;;;;;;;4327066;33;20207;-58
2021/03/28 01:59:31;;;;;;;88.20;51.30;;;;;;;;;;4327922;33;20219;-58
2021/03/28 02:02:24;;;;;;;87.43;53.43;;;;;;;;;;4322069;33;20335;-57
2021/03/28 02:05:11;;;;;;;73.47;42.57;;;;;;;;;;4327714;33;20234;-58
2021/03/28 02:08:28;;;;;;;62.50;39.50;;;;;;;;;;4317360;33;20203;-57
2021/03/28 02:11:13;;;;;;;75.70;41.27;;;;;;;;;;4293558;33;20316;-57
2021/03/28 02:14:06;;;;;;;78.63;43.77;;;;;;;;;;4327561;33;20219;-58
2021/03/28 02:16:49;;;;;;;86.83;47.53;;;;;;;;;;4324922;33;20676;-58
2021/03/28 02:19:26;;;;;;;79.30;44.87;;;;;;;;;;4325485;33;20677;-56
2021/03/28 02:21:54;;;;;;;68.63;39.03;;;;;;;;;;4306676;33;20254;-55
2021/03/28 02:24:40;;;;;;;71.30;38.17;;;;;;;;;;4312474;33;20344;-57
2021/03/28 02:27:14;;;;;;;63.13;35.47;;;;;;;;;;4289862;33;20278;-55
2021/03/28 02:29:48;;;;;;;69.77;38.07;;;;;;;;;;4327441;33;20316;-54
2021/03/28 02:32:14;;;;;;;57.13;34.37;;;;;;;;;;4313911;33;20286;-56
2021/03/28 02:35:12;;;;;;;52.20;31.83;;;;;;;;;;4323545;33;20361;-55
2021/03/28 02:38:02;;;;;;;58.73;32.07;;;;;;;;;;4307925;33;20239;-55
2021/03/28 02:40:34;;;;;;;59.80;30.77;;;;;;;;;;4327281;33;20242;-55
2021/03/28 02:43:12;;;;;;;55.27;28.77;;;;;;;;;;4327028;33;20616;-57
2021/03/28 02:45:43;;;;;;;40.33;24.63;;;;;;;;;;4330223;33;20211;-56
2021/03/28 02:48:20;;;;;;;43.57;25.73;;;;;;;;;;4328469;33;20290;-57
2021/03/28 02:51:25;;;;;;;45.30;23.03;;;;;;;;;;4329543;33;20215;-56
2021/03/28 02:54:22;;;;;;;35.40;22.47;;;;;;;;;;4329401;33;20699;-56
2021/03/28 02:57:12;;;;;;;29.93;20.00;;;;;;;;;;4312232;33;20301;-58
2021/03/28 02:59:46;;;;;;;41.97;22.87;;;;;;;;;;4308805;33;20299;-56
2021/03/28 03:02:27;;;;;;;49.47;27.33;;;;;;;;;;4322669;33;20231;-57
2021/03/28 03:05:06;;;;;;;49.63;27.43;;;;;;;;;;4325962;33;20269;-56
2021/03/28 03:07:44;;;;;;;45.37;24.73;;;;;;;;;;4325642;33;20337;-56
2021/03/28 03:10:38;;;;;;;52.93;28.27;;;;;;;;;;4328004;33;20222;-56
2021/03/28 03:13:41;;;;;;;52.20;29.63;;;;;;;;;;4329439;33;20434;-56
2021/03/28 03:16:17;;;;;;;51.33;28.00;;;;;;;;;;4314263;33;20451;-57
2021/03/28 03:19:42;;;;;;;67.90;37.13;;;;;;;;;;4312164;33;20336;-56
2021/03/28 03:22:26;;;;;;;73.60;39.73;;;;;;;;;;4249163;33;20221;-56
2021/03/28 03:25:18;;;;;;;82.63;42.70;;;;;;;;;;4255213;33;20240;-56
2021/03/28 03:28:18;;;;;;;63.30;36.50;;;;;;;;;;4295720;33;20282;-55
2021/03/28 03:31:23;;;;;;;57.57;34.13;;;;;;;;;;4328818;33;20207;-55
2021/03/28 03:34:07;;;;;;;56.73;35.13;;;;;;;;;;4321922;33;20211;-56
2021/03/28 03:36:48;;;;;;;62.57;36.90;;;;;;;;;;4324895;33;20234;-56
2021/03/28 03:39:44;;;;;;;61.03;34.57;;;;;;;;;;4327773;33;20227;-54
2021/03/28 03:42:30;;;;;;;75.87;36.47;;;;;;;;;;4324682;33;20261;-57
2021/03/28 03:45:23;;;;;;;60.97;36.53;;;;;;;;;;4329017;33;20286;-57
2021/03/28 03:48:10;;;;;;;70.83;37.50;;;;;;;;;;4328979;33;20206;-57
2021/03/28 03:51:07;;;;;;;70.43;37.60;;;;;;;;;;4311160;33;20469;-57
2021/03/28 03:53:59;;;;;;;71.73;38.20;;;;;;;;;;4310130;33;20243;-57
2021/03/28 03:56:49;;;;;;;58.67;35.50;;;;;;;;;;4327796;33;20330;-57
2021/03/28 03:59:56;;;;;;;52.03;32.07;;;;;;;;;;4324713;33;20601;-57
2021/03/28 04:02:31;;;;;;;58.20;30.60;;;;;;;;;;4323243;33;20691;-58
2021/03/28 04:05:15;;;;;;;62.23;33.77;;;;;;;;;;4328672;33;20324;-57
2021/03/28 04:08:00;;;;;;;62.13;33.30;;;;;;;;;;4299867;33;20306;-57
2021/03/28 04:10:55;;;;;;;61.27;31.33;;;;;;;;;;4328667;33;20249;-57
2021/03/28 04:13:59;;;;;;;57.63;34.87;;;;;;;;;;4328749;33;20211;-58
2021/03/28 04:16:27;;;;;;;73.50;36.07;;;;;;;;;;4285504;33;20577;-57
2021/03/28 04:18:53;;;;;;;58.13;32.97;;;;;;;;;;4326545;33;20292;-57
2021/03/28 04:21:26;;;;;;;58.43;34.07;;;;;;;;;;4327888;33;20207;-57
2021/03/28 04:24:09;;;;;;;57.73;32.47;;;;;;;;;;4328493;33;20215;-57
2021/03/28 04:26:59;;;;;;;56.77;36.00;;;;;;;;;;4322059;33;20305;-57
2021/03/28 04:29:25;;;;;;;69.33;41.57;;;;;;;;;;4308137;33;20216;-56
2021/03/28 04:32:28;;;;;;;76.50;44.83;;;;;;;;;;4317722;33;20298;-56
2021/03/28 04:35:18;;;;;;;91.33;49.73;;;;;;;;;;4313626;33;20239;-55
2021/03/28 04:37:49;;;;;;;92.03;51.00;;;;;;;;;;4323060;33;20227;-56
2021/03/28 04:40:14;;;;;;;85.00;46.70;;;;;;;;;;4328328;33;20218;-55
2021/03/28 04:42:43;;;;;;;86.23;49.10;;;;;;;;;;4318129;33;20746;-56
2021/03/28 04:45:27;;;;;;;110.70;60.17;;;;;;;;;;4323357;33;20301;-55
2021/03/28 04:48:07;;;;;;;106.90;58.53;;;;;;;;;;4321229;33;20242;-56
2021/03/28 04:51:04;;;;;;;81.27;52.30;;;;;;;;;;4327312;33;20560;-57
2021/03/28 04:53:38;;;;;;;94.73;55.37;;;;;;;;;;4327163;33;20648;-56
2021/03/28 04:56:28;;;;;;;77.30;46.70;;;;;;;;;;4328055;33;20222;-56
2021/03/28 04:59:24;;;;;;;88.13;51.80;;;;;;;;;;4324009;33;20613;-56
2021/03/28 05:02:02;;;;;;;96.83;51.90;;;;;;;;;;4320547;33;20321;-57
2021/03/28 05:05:02;;;;;;;84.03;47.53;;;;;;;;;;4322183;33;20269;-57
2021/03/28 05:07:45;;;;;;;90.13;51.80;;;;;;;;;;4321714;33;20214;-57
2021/03/28 05:10:30;;;;;;;83.70;49.93;;;;;;;;;;4327785;33;20243;-57
2021/03/28 05:13:13;;;;;;;103.60;58.57;;;;;;;;;;4327279;33;20265;-56
2021/03/28 05:15:48;;;;;;;104.90;63.13;;;;;;;;;;4311820;33;20223;-57
2021/03/28 05:18:46;;;;;;;108.10;61.47;;;;;;;;;;4325342;33;20218;-58
2021/03/28 05:21:33;;;;;;;91.33;57.30;;;;;;;;;;4326278;33;20228;-55
2021/03/28 05:24:01;;;;;;;76.47;47.03;;;;;;;;;;4310411;33;20253;-55
2021/03/28 05:26:48;;;;;;;69.87;43.47;;;;;;;;;;4314848;33;20277;-56
2021/03/28 05:29:39;;;;;;;81.50;49.77;;;;;;;;;;4327634;33;20597;-56
2021/03/28 05:32:14;;;;;;;80.77;49.13;;;;;;;;;;4319378;33;20284;-56
2021/03/28 05:35:23;;;;;;;70.17;43.00;;;;;;;;;;4319548;33;20285;-58
2021/03/28 05:38:11;;;;;;;64.83;41.37;;;;;;;;;;4313285;33;20223;-56
2021/03/28 05:41:07;;;;;;;56.50;37.10;;;;;;;;;;4327361;33;20265;-57
2021/03/28 05:43:35;;;;;;;61.13;40.43;;;;;;;;;;4326888;33;20837;-55
2021/03/28 05:46:32;;;;;;;62.73;40.20;;;;;;;;;;4314040;33;20309;-56
2021/03/28 05:49:28;;;;;;;65.37;41.73;;;;;;;;;;4327674;33;20247;-56
2021/03/28 05:52:24;;;;;;;78.97;48.17;;;;;;;;;;4327090;33;20207;-56
2021/03/28 05:55:14;;;;;;;76.53;45.93;;;;;;;;;;4327223;33;20207;-55
2021/03/28 05:58:08;;;;;;;90.53;51.33;;;;;;;;;;4317363;33;20560;-55
2021/03/28 06:01:10;;;;;;;77.07;44.43;;;;;;;;;;4322447;33;20338;-55
2021/03/28 06:04:13;;;;;;;77.50;48.97;;;;;;;;;;4322534;33;20227;-55
2021/03/28 06:06:57;;;;;;;79.60;47.27;;;;;;;;;;4321838;33;20691;-56
2021/03/28 06:09:44;;;;;;;85.93;47.37;;;;;;;;;;4327530;33;20629;-55
2021/03/28 06:12:18;;;;;;;83.37;50.80;;;;;;;;;;4327192;33;20281;-55
2021/03/28 06:15:32;;;;;;;86.73;54.97;;;;;;;;;;4319041;33;20285;-55
2021/03/28 06:18:52;;;;;;;50.03;32.40;;;;;;;;;;4309529;33;20231;-55
2021/03/28 06:21:59;;;;;;;58.77;34.73;;;;;;;;;;4315702;33;20257;-55
2021/03/28 06:24:32;;;;;;;92.43;50.97;;;;;;;;;;4313886;33;20522;-55
2021/03/28 06:27:35;;;;;;;79.50;41.33;;;;;;;;;;4328659;33;20223;-57
2021/03/28 06:30:23;;;;;;;54.20;31.73;;;;;;;;;;4326910;33;20335;-59
2021/03/28 06:33:10;;;;;;;42.27;28.03;;;;;;;;;;4326975;33;20254;-59
2021/03/28 06:35:56;;;;;;;48.20;30.13;;;;;;;;;;4318156;33;20629;-58
2021/03/28 06:38:42;;;;;;;50.83;30.27;;;;;;;;;;4324173;33;20245;-57
2021/03/28 06:41:33;;;;;;;49.90;31.67;;;;;;;;;;4329673;33;20269;-59
2021/03/28 06:44:32;;;;;;;51.90;32.43;;;;;;;;;;4316914;33;20249;-58
2021/03/28 06:47:10;;;;;;;77.47;43.87;;;;;;;;;;4329492;33;20215;-58
2021/03/28 06:49:58;;;;;;;69.93;42.83;;;;;;;;;;4326548;33;20558;-59
2021/03/28 06:52:38;;;;;;;73.17;43.53;;;;;;;;;;4322839;33;20199;-59
2021/03/28 06:55:18;;;;;;;71.07;46.20;;;;;;;;;;4322198;33;20210;-59
2021/03/28 06:58:09;;;;;;;73.03;48.07;;;;;;;;;;4309623;33;20421;-59
2021/03/28 07:00:46;;;;;;;71.23;43.90;;;;;;;;;;4313004;33;20275;-59
2021/03/28 07:03:49;;;;;;;73.53;45.60;;;;;;;;;;4319037;33;20294;-58
2021/03/28 07:06:33;;;;;;;72.40;46.10;;;;;;;;;;4324618;33;20248;-58
2021/03/28 07:09:36;;;;;;;76.07;48.43;;;;;;;;;;4344551;33;20631;-57
2021/03/28 07:12:09;;;;;;;72.03;48.10;;;;;;;;;;4329765;33;20203;-58
2021/03/28 07:15:05;;;;;;;71.90;47.87;;;;;;;;;;4329936;33;20238;-57
2021/03/28 07:18:05;;;;;;;70.70;46.97;;;;;;;;;;4316235;33;20294;-57
2021/03/28 07:21:02;;;;;;;70.43;42.63;;;;;;;;;;4312578;33;20297;-56
2021/03/28 07:23:36;;;;;;;70.37;44.13;;;;;;;;;;4319891;33;20257;-57
2021/03/28 07:26:18;;;;;;;70.37;48.07;;;;;;;;;;4321014;33;20306;-56
2021/03/28 07:29:08;;;;;;;68.57;44.10;;;;;;;;;;4329429;33;20302;-56
2021/03/28 07:32:18;;;;;;;67.07;44.80;;;;;;;;;;4315800;33;20257;-55
2021/03/28 07:35:24;;;;;;;68.90;47.67;;;;;;;;;;4321295;33;20233;-55
2021/03/28 07:38:14;;;;;;;75.27;48.90;;;;;;;;;;4328351;33;20277;-55
2021/03/28 07:41:17;;;;;;;72.17;49.47;;;;;;;;;;4327276;33;20348;-56
2021/03/28 07:43:58;;;;;;;67.03;44.60;;;;;;;;;;4313826;33;20305;-59
2021/03/28 07:46:29;;;;;;;79.00;48.93;;;;;;;;;;4319548;33;20468;-58
2021/03/28 07:49:32;;;;;;;65.63;46.30;;;;;;;;;;4326093;33;20266;-58
2021/03/28 07:52:33;;;;;;;65.23;42.73;;;;;;;;;;4322169;33;20211;-59
2021/03/28 07:55:17;;;;;;;65.90;40.93;;;;;;;;;;4321152;33;20284;-59
2021/03/28 07:57:48;;;;;;;67.80;44.13;;;;;;;;;;4317769;33;20251;-56
2021/03/28 08:00:33;;;;;;;65.77;42.43;;;;;;;;;;4326865;33;20511;-56
2021/03/28 08:03:05;;;;;;;75.63;50.17;;;;;;;;;;4327014;33;20223;-57
2021/03/28 08:06:05;;;;;;;82.77;51.73;;;;;;;;;;4326681;33;20310;-59
2021/03/28 08:08:30;;;;;;;66.23;44.87;;;;;;;;;;4326931;33;20364;-57
2021/03/28 08:11:18;;;;;;;68.47;43.63;;;;;;;;;;4326683;33;20544;-58
2021/03/28 08:13:56;;;;;;;64.43;44.17;;;;;;;;;;4327512;33;20627;-56
2021/03/28 08:16:51;;;;;;;64.90;41.50;;;;;;;;;;4328605;33;20239;-57
2021/03/28 08:19:26;;;;;;;56.53;35.80;;;;;;;;;;4321774;33;20257;-58
2021/03/28 08:22:29;;;;;;;52.10;34.10;;;;;;;;;;4313941;33;20234;-57
2021/03/28 08:25:19;;;;;;;44.67;24.43;;;;;;;;;;4317478;33;20284;-57
2021/03/28 08:27:51;;;;;;;34.73;21.90;;;;;;;;;;4329007;33;20218;-58
2021/03/28 08:30:45;;;;;;;34.57;20.93;;;;;;;;;;4314220;33;20319;-58
2021/03/28 08:33:10;;;;;;;23.97;17.03;;;;;;;;;;4324716;33;20397;-57
2021/03/28 08:35:52;;;;;;;31.90;17.50;;;;;;;;;;4319254;33;20284;-57
2021/03/28 08:38:22;;;;;;;31.93;17.83;;;;;;;;;;4326182;33;20297;-57
2021/03/28 08:41:21;;;;;;;27.30;16.57;;;;;;;;;;4318029;33;20309;-57
2021/03/28 08:44:23;;;;;;;27.93;19.93;;;;;;;;;;4315012;33;20645;-58
2021/03/28 08:47:44;;;;;;;26.73;17.60;;;;;;;;;;4310304;33;20214;-57
2021/03/28 08:50:34;;;;;;;28.50;16.63;;;;;;;;;;4291948;33;20306;-56
2021/03/28 08:53:23;;;;;;;29.17;17.20;;;;;;;;;;4298203;33;20236;-58
2021/03/28 08:56:26;;;;;;;23.07;15.03;;;;;;;;;;4317307;33;20676;-57
2021/03/28 08:59:10;;;;;;;27.77;16.77;;;;;;;;;;4323858;33;20575;-58
2021/03/28 09:02:23;;;;;;;19.73;15.27;;;;;;;;;;4322997;33;20191;-58
2021/03/28 09:05:16;;;;;;;24.40;17.73;;;;;;;;;;4300244;33;20235;-56
2021/03/28 09:07:47;;;;;;;33.27;21.20;;;;;;;;;;4307278;33;20254;-59
2021/03/28 09:10:42;;;;;;;34.30;22.77;;;;;;;;;;4323464;33;20215;-60
2021/03/28 09:13:39;;;;;;;21.30;15.13;;;;;;;;;;4318231;33;20223;-59
2021/03/28 09:16:35;;;;;;;19.93;13.57;;;;;;;;;;4324031;33;20230;-57
2021/03/28 09:19:00;;;;;;;20.97;11.30;;;;;;;;;;4327615;33;20223;-56
2021/03/28 09:21:32;;;;;;;15.87;10.10;;;;;;;;;;4314751;33;20511;-57
2021/03/28 09:24:08;;;;;;;19.73;11.33;;;;;;;;;;4311373;33;20227;-58
2021/03/28 09:26:53;;;;;;;19.90;14.30;;;;;;;;;;4322881;33;20695;-59
2021/03/28 09:29:36;;;;;;;22.40;16.57;;;;;;;;;;4327934;33;20227;-60
2021/03/28 09:32:29;;;;;;;27.77;14.77;;;;;;;;;;4324576;33;20297;-60
2021/03/28 09:35:34;;;;;;;27.73;15.77;;;;;;;;;;4313553;33;20211;-59
2021/03/28 09:38:13;;;;;;;26.83;16.77;;;;;;;;;;4301438;33;20251;-60
2021/03/28 09:40:50;;;;;;;29.17;19.87;;;;;;;;;;4316047;33;20220;-60
2021/03/28 09:43:52;;;;;;;30.00;21.00;;;;;;;;;;4326330;33;20634;-58
2021/03/28 09:46:39;;;;;;;35.27;22.20;;;;;;;;;;4320106;33;20241;-59
2021/03/28 09:49:23;;;;;;;38.93;21.40;;;;;;;;;;4327978;33;20277;-60
2021/03/28 09:52:21;;;;;;;27.67;18.97;;;;;;;;;;4323287;33;20211;-59
2021/03/28 09:55:21;;;;;;;33.07;20.03;;;;;;;;;;4317564;33;20230;-59
2021/03/28 09:58:06;;;;;;;28.47;15.50;;;;;;;;;;4330713;33;20214;-59
2021/03/28 10:00:45;;;;;;;13.67;10.47;;;;;;;;;;4312860;33;20346;-59
2021/03/28 10:03:35;;;;;;;17.70;11.37;;;;;;;;;;4323119;33;20349;-59
2021/03/28 10:06:23;;;;;;;28.00;15.57;;;;;;;;;;4310144;33;20313;-60
2021/03/28 10:08:58;;;;;;;30.83;20.30;;;;;;;;;;4317530;33;20215;-59
2021/03/28 10:11:44;;;;;;;30.20;19.80;;;;;;;;;;4318360;33;20233;-59
2021/03/28 10:14:44;;;;;;;33.80;19.03;;;;;;;;;;4313715;33;20335;-59
2021/03/28 10:17:43;;;;;;;22.03;15.67;;;;;;;;;;4320853;33;20223;-59
2021/03/28 10:20:22;;;;;;;22.60;14.80;;;;;;;;;;4322308;33;20254;-59
2021/03/28 10:22:50;;;;;;;43.20;33.77;;;;;;;;;;4322144;33;20246;-58
2021/03/28 10:25:46;;;;;;;25.70;16.73;;;;;;;;;;4321562;33;20294;-56
2021/03/28 10:28:44;;;;;;;24.13;17.63;;;;;;;;;;4315240;33;20313;-57
2021/03/28 10:31:23;;;;;;;43.93;25.17;;;;;;;;;;4309074;33;20742;-57
2021/03/28 10:33:51;;;;;;;38.83;20.10;;;;;;;;;;4323356;33;20218;-57
2021/03/28 10:36:53;;;;;;;25.07;17.67;;;;;;;;;;4319245;33;20270;-59
2021/03/28 10:39:43;;;;;;;24.90;11.43;;;;;;;;;;4323266;33;21138;-57
2021/03/28 10:42:08;;;;;;;49.60;28.43;;;;;;;;;;4326565;33;20599;-58
2021/03/28 10:44:49;;;;;;;33.50;19.20;;;;;;;;;;4315425;33;20253;-58
2021/03/28 10:47:27;;;;;;;44.23;30.53;;;;;;;;;;4323757;33;20518;-58
2021/03/28 10:49:58;;;;;;;31.50;24.03;;;;;;;;;;4318658;33;20226;-56
2021/03/28 10:52:51;;;;;;;21.87;16.37;;;;;;;;;;4328239;33;20545;-57
2021/03/28 10:55:47;;;;;;;23.60;16.57;;;;;;;;;;4329343;33;20596;-59
2021/03/28 10:58:50;;;;;;;23.50;17.20;;;;;;;;;;4325240;33;20266;-65
2021/03/28 11:01:44;;;;;;;30.27;20.80;;;;;;;;;;4317575;33;20210;-66
2021/03/28 11:04:34;;;;;;;30.90;21.17;;;;;;;;;;4314491;33;20219;-63
2021/03/28 11:07:25;;;;;;;28.00;19.43;;;;;;;;;;4311560;33;20259;-58
2021/03/28 11:10:18;;;;;;;25.60;21.27;;;;;;;;;;4328497;33;20224;-56
2021/03/28 11:13:38;;;;;;;28.20;20.47;;;;;;;;;;4329754;33;20564;-57
2021/03/28 11:16:10;;;;;;;31.90;22.30;;;;;;;;;;4268473;33;20617;-57
2021/03/28 11:18:36;;;;;;;30.47;20.07;;;;;;;;;;4269414;33;20244;-56
2021/03/28 11:21:22;;;;;;;28.90;20.70;;;;;;;;;;4293707;33;20266;-58
2021/03/28 11:24:17;;;;;;;30.87;25.10;;;;;;;;;;4324947;33;20333;-58
2021/03/28 11:26:42;;;;;;;22.87;17.93;;;;;;;;;;4323466;33;20250;-58
2021/03/28 11:29:36;;;;;;;20.50;17.10;;;;;;;;;;4329798;33;20325;-58
2021/03/28 11:32:03;;;;;;;22.07;18.90;;;;;;;;;;4324771;33;20237;-55
2021/03/28 11:34:38;;;;;;;17.93;14.53;;;;;;;;;;4323514;33;20342;-56
2021/03/28 11:37:35;;;;;;;23.03;17.97;;;;;;;;;;4323307;33;20274;-58
2021/03/28 11:40:07;;;;;;;18.17;13.77;;;;;;;;;;4329502;33;20612;-57
2021/03/28 11:42:33;;;;;;;30.73;19.00;;;;;;;;;;4326758;33;20278;-58
2021/03/28 11:45:03;;;;;;;28.57;15.53;;;;;;;;;;4337938;33;20242;-55
2021/03/28 11:47:30;;;;;;;22.57;16.70;;;;;;;;;;4328552;33;20211;-57
2021/03/28 11:50:01;;;;;;;18.50;14.47;;;;;;;;;;4329606;33;20239;-58
2021/03/28 11:52:47;;;;;;;34.60;18.37;;;;;;;;;;4327334;33;20365;-57
2021/03/28 11:55:33;;;;;;;33.40;24.83;;;;;;;;;;4323821;33;20251;-56
2021/03/28 11:58:17;;;;;;;20.83;16.97;;;;;;;;;;4328383;33;20222;-55
2021/03/28 12:00:59;;;;;;;24.03;18.17;;;;;;;;;;4322699;33;20287;-58
2021/03/28 12:03:27;;;;;;;25.33;19.57;;;;;;;;;;4320516;33;20611;-58
2021/03/28 12:06:08;;;;;;;20.53;16.57;;;;;;;;;;4309471;33;20300;-56
2021/03/28 12:08:36;;;;;;;24.20;19.73;;;;;;;;;;4329245;33;20732;-55
2021/03/28 12:11:39;;;;;;;38.73;21.57;;;;;;;;;;4328695;33;20204;-53
2021/03/28 12:14:17;;;;;;;22.93;14.20;;;;;;;;;;4325893;33;20210;-62
2021/03/28 12:17:10;;;;;;;16.63;13.37;;;;;;;;;;4317992;33;20202;-62
2021/03/28 12:20:07;;;;;;;15.90;11.63;;;;;;;;;;4306052;33;20243;-62
2021/03/28 12:22:41;;;;;;;15.33;11.73;;;;;;;;;;4322902;33;20219;-61
2021/03/28 12:25:29;;;;;;;44.83;28.13;;;;;;;;;;4329149;33;20379;-60
2021/03/28 12:27:55;;;;;;;19.03;16.53;;;;;;;;;;4306709;33;20212;-60
2021/03/28 12:30:38;;;;;;;22.57;18.07;;;;;;;;;;4320576;33;20371;-60
2021/03/28 12:33:04;;;;;;;25.67;15.63;;;;;;;;;;4311128;33;20223;-60
2021/03/28 12:35:57;;;;;;;37.13;18.10;;;;;;;;;;4325193;33;20253;-60
2021/03/28 12:38:38;;;;;;;33.73;23.13;;;;;;;;;;4309735;33;20691;-61
2021/03/28 12:41:10;;;;;;;34.13;22.70;;;;;;;;;;4315741;33;20226;-60
2021/03/28 12:43:40;;;;;;;22.13;17.27;;;;;;;;;;4328307;33;20284;-59
2021/03/28 12:46:23;;;;;;;32.47;24.77;;;;;;;;;;4337504;33;20410;-62
2021/03/28 12:48:52;;;;;;;21.77;19.03;;;;;;;;;;4324940;33;20215;-61
2021/03/28 12:51:24;;;;;;;20.13;18.13;;;;;;;;;;4313344;33;20250;-62
2021/03/28 12:53:50;;;;;;;29.50;22.97;;;;;;;;;;4311334;33;20274;-61
2021/03/28 12:56:23;;;;;;;32.00;25.43;;;;;;;;;;4315634;33;20208;-60
2021/03/28 12:58:53;;;;;;;36.30;27.43;;;;;;;;;;4326844;33;20656;-60
2021/03/28 13:01:32;;;;;;;25.10;22.17;;;;;;;;;;4327313;33;20281;-60
2021/03/28 13:04:30;;;;;;;31.57;24.77;;;;;;;;;;4326682;33;20245;-60
2021/03/28 13:06:55;;;;;;;39.63;23.90;;;;;;;;;;4294362;33;20360;-59
2021/03/28 13:09:23;;;;;;;53.80;37.10;;;;;;;;;;4299364;33;20333;-59
2021/03/28 13:11:58;;;;;;;28.37;24.00;;;;;;;;;;4323354;33;20691;-60
2021/03/28 13:14:31;;;;;;;20.93;18.67;;;;;;;;;;4328320;33;20249;-59
2021/03/28 13:16:58;;;;;;;21.27;18.50;;;;;;;;;;4313899;33;20604;-59
2021/03/28 13:19:31;;;;;;;33.50;20.93;;;;;;;;;;4321169;33;20277;-59
2021/03/28 13:21:59;;;;;;;34.93;26.60;;;;;;;;;;4323026;33;20215;-61
2021/03/28 13:24:25;;;;;;;34.40;27.13;;;;;;;;;;4322544;33;20219;-60
2021/03/28 13:27:11;;;;;;;30.40;25.23;;;;;;;;;;4321591;33;20368;-59
2021/03/28 13:29:49;;;;;;;31.03;24.07;;;;;;;;;;4323262;33;20214;-58
2021/03/28 13:32:22;;;;;;;30.37;25.73;;;;;;;;;;4323273;33;20605;-59
2021/03/28 13:34:50;;;;;;;23.70;20.47;;;;;;;;;;4309603;33;20274;-58
2021/03/28 13:37:27;;;;;;;33.13;24.97;;;;;;;;;;4324027;33;20338;-58
2021/03/28 13:40:25;;;;;;;29.43;23.40;;;;;;;;;;4309980;33;20315;-58
2021/03/28 13:42:58;;;;;;;28.40;24.47;;;;;;;;;;4316249;33;20728;-58
2021/03/28 13:45:32;;;;;;;26.20;23.20;;;;;;;;;;4310789;33;20231;-54
2021/03/28 13:48:06;;;;;;;33.80;26.93;;;;;;;;;;4320094;33;20279;-54
2021/03/28 13:50:54;;;;;;;38.03;30.73;;;;;;;;;;4318080;33;20234;-56
2021/03/28 13:53:40;;;;;;;54.23;39.30;;;;;;;;;;4318994;33;20376;-56
2021/03/28 13:56:15;;;;;;;39.93;33.73;;;;;;;;;;4326071;33;20291;-55
2021/03/28 13:58:43;;;;;;;46.20;31.53;;;;;;;;;;4322619;33;20297;-56
2021/03/28 14:01:20;;;;;;;42.57;32.00;;;;;;;;;;4326596;33;20211;-55
2021/03/28 14:03:47;;;;;;;54.90;38.75;;;;;;;;;;4326190;33;20240;-55
2021/03/28 14:06:22;;;;;;;42.78;32.80;;;;;;;;;;4324278;33;20382;-55
2021/03/28 14:08:51;;;;;;;42.03;34.27;;;;;;;;;;4326297;33;20235;-54
2021/03/28 14:11:34;;;;;;;76.47;42.07;;;;;;;;;;4321269;33;20207;-60
2021/03/28 14:14:07;;;;;;;107.33;39.60;;;;;;;;;;4306546;33;20368;-60
2021/03/28 14:16:40;;;;;;;127.40;41.57;;;;;;;;;;4320679;33;20619;-59
2021/03/28 14:19:13;;;;;;;65.47;48.33;;;;;;;;;;4321716;33;20247;-60
2021/03/28 14:21:41;;;;;;;51.17;34.97;;;;;;;;;;4326053;33;20231;-61
2021/03/28 14:24:17;;;;;;;35.40;29.03;;;;;;;;;;4316821;33;20384;-60
2021/03/28 14:26:48;;;;;;;37.53;31.87;;;;;;;;;;4327473;33;20655;-60
2021/03/28 14:29:37;;;;;;;39.50;31.20;;;;;;;;;;4321415;33;20258;-59
2021/03/28 14:32:11;;;;;;;45.07;35.77;;;;;;;;;;4326002;33;20215;-59
2021/03/28 14:34:55;;;;;;;35.43;28.43;;;;;;;;;;4318526;33;20321;-64
2021/03/28 14:37:27;;;;;;;40.13;29.70;;;;;;;;;;4320771;33;20364;-62
2021/03/28 14:40:30;;;;;;;27.63;22.93;;;;;;;;;;4325213;33;20215;-60
2021/03/28 14:43:02;;;;;;;29.70;25.93;;;;;;;;;;4314478;33;21212;-65
2021/03/28 14:45:34;;;;;;;28.43;21.17;;;;;;;;;;4335662;33;20309;-67
2021/03/28 14:48:11;;;;;;;43.27;29.10;;;;;;;;;;4323114;33;20243;-64
2021/03/28 14:50:45;;;;;;;24.23;20.50;;;;;;;;;;4323939;33;20206;-61
2021/03/28 14:53:48;;;;;;;30.23;24.07;;;;;;;;;;4314233;33;20356;-66
2021/03/28 14:56:42;;;;;;;31.80;23.07;;;;;;;;;;4328758;33;20277;-64
2021/03/28 14:59:13;;;;;;;27.53;20.57;;;;;;;;;;4319680;33;20396;-64
2021/03/28 15:01:54;;;;;;;27.57;22.83;;;;;;;;;;4321312;33;20282;-60
2021/03/28 15:04:44;;;;;;;27.97;23.80;;;;;;;;;;4324593;33;20337;-68
2021/03/28 15:07:31;;;;;;;29.13;22.67;;;;;;;;;;4315338;33;20242;-60
2021/03/28 15:10:21;;;;;;;53.30;36.73;;;;;;;;;;4317217;33;20270;-73
2021/03/28 15:12:52;;;;;;;60.33;41.37;;;;;;;;;;4316579;33;20298;-72
2021/03/28 15:15:28;;;;;;;44.97;27.77;;;;;;;;;;4329201;33;20625;-70
2021/03/28 15:18:17;;;;;;;28.97;21.63;;;;;;;;;;4321420;33;20211;-65
2021/03/28 15:20:49;;;;;;;28.10;19.20;;;;;;;;;;4325913;33;20226;-68
2021/03/28 15:23:25;;;;;;;31.87;23.33;;;;;;;;;;4320660;33;20271;-67
2021/03/28 15:26:18;;;;;;;28.97;21.93;;;;;;;;;;4315293;33;20234;-68
2021/03/28 15:28:50;;;;;;;50.27;33.70;;;;;;;;;;4310568;33;20255;-70
2021/03/28 15:31:27;;;;;;;94.80;55.17;;;;;;;;;;4313513;33;20258;-68
2021/03/28 15:34:02;;;;;;;121.93;63.03;;;;;;;;;;4324796;33;20261;-62
2021/03/28 15:36:58;;;;;;;56.37;36.67;;;;;;;;;;4329715;33;20279;-67
2021/03/28 15:39:42;;;;;;;50.37;27.83;;;;;;;;;;4323402;33;20257;-69
2021/03/28 15:42:20;;;;;;;31.97;24.90;;;;;;;;;;4321554;33;20535;-71
2021/03/28 15:44:49;;;;;;;44.70;33.20;;;;;;;;;;4323019;33;20301;-70
2021/03/28 15:47:56;;;;;;;38.90;23.03;;;;;;;;;;4312614;33;20257;-66
2021/03/28 15:50:58;;;;;;;36.23;26.17;;;;;;;;;;4328825;33;20315;-67
2021/03/28 15:53:26;;;;;;;22.23;17.73;;;;;;;;;;4314860;33;20318;-69